Time;durP1;ratioP1;P1;durP2;ratioP2;P2;SDS_P1;SDS_P2;PMS_P1;PMS_P2;Temp;Humidity;BMP_temperature;BMP_pressure;BME280_temperature;BME280_humidity;BME280_pressure;Samples;Min_cycle;Max_cycle;Signal;HPM_P1;HPM_P2
2023/04/10 14:31:34;;;;;;;3.00;1.50;;;18.80;64.80;;;;;;5121713;27;20494;-77
2023/04/10 14:34:00;;;;;;;15.25;2.30;;;18.70;64.80;;;;;;5110551;28;20041;-76
2023/04/10 14:36:26;;;;;;;5.05;1.98;;;18.50;64.90;;;;;;5110490;28;20035;-77
2023/04/10 14:38:52;;;;;;;8.40;1.52;;;18.60;64.90;;;;;;5105260;28;20431;-76
2023/04/10 14:41:18;;;;;;;4.38;1.77;;;18.50;65.40;;;;;;5106654;28;20030;-77
2023/04/10 14:43:43;;;;;;;3.50;2.03;;;18.60;65.90;;;;;;5106084;28;20024;-78
2023/04/10 14:46:09;;;;;;;4.65;1.85;;;18.60;66.60;;;;;;5105891;28;20229;-78
2023/04/10 14:48:34;;;;;;;4.97;1.98;;;18.50;66.20;;;;;;5106249;28;20036;-77
2023/04/10 14:51:00;;;;;;;4.68;2.60;;;18.50;66.70;;;;;;5106159;28;20451;-77
2023/04/10 14:53:26;;;;;;;5.13;2.17;;;18.50;66.90;;;;;;5106220;28;20047;-76
2023/04/10 14:55:52;;;;;;;3.78;1.73;;;18.30;67.40;;;;;;5093563;28;20098;-76
2023/04/10 14:58:17;;;;;;;3.75;1.90;;;18.50;67.80;;;;;;5098682;28;20766;-77
2023/04/10 15:00:44;;;;;;;3.60;1.95;;;18.30;67.30;;;;;;5073132;28;20016;-76
2023/04/10 15:03:10;;;;;;;5.38;2.65;;;18.40;67.70;;;;;;5074647;28;20023;-77
2023/04/10 15:05:36;;;;;;;4.35;2.67;;;18.30;68.20;;;;;;5074597;28;20928;-77
2023/04/10 15:08:02;;;;;;;5.03;2.30;;;18.20;68.40;;;;;;5065065;28;20025;-76
2023/04/10 15:10:29;;;;;;;5.93;2.30;;;18.00;68.70;;;;;;5065016;28;20098;-75
2023/04/10 15:12:55;;;;;;;6.05;2.00;;;18.10;69.30;;;;;;5054120;28;20024;-76
2023/04/10 15:15:20;;;;;;;10.05;2.47;;;18.30;70.50;;;;;;5064155;28;20025;-76
2023/04/10 15:17:46;;;;;;;5.45;2.67;;;18.30;69.60;;;;;;5063083;28;20074;-75
2023/04/10 15:20:12;;;;;;;4.32;2.40;;;18.10;69.70;;;;;;5063547;28;20036;-77
2023/04/10 15:22:41;;;;;;;6.88;3.10;;;18.00;70.10;;;;;;5063584;28;20081;-76
2023/04/10 15:25:09;;;;;;;18.02;4.25;;;17.80;70.20;;;;;;5063135;28;20092;-74
2023/04/10 15:27:35;;;;;;;5.05;2.50;;;17.80;70.10;;;;;;5063999;28;20505;-75
2023/04/10 15:30:01;;;;;;;6.18;2.10;;;17.70;71.20;;;;;;5044593;28;20049;-76
2023/04/10 15:32:26;;;;;;;4.22;2.40;;;17.70;71.00;;;;;;5044272;28;20025;-74
2023/04/10 15:34:52;;;;;;;4.43;2.22;;;17.70;71.60;;;;;;5062737;28;20680;-74
2023/04/10 15:37:18;;;;;;;7.57;3.03;;;17.70;71.30;;;;;;5063816;28;20044;-74
2023/04/10 15:39:43;;;;;;;5.43;2.97;;;17.70;71.20;;;;;;5063930;28;20017;-75
2023/04/10 15:42:09;;;;;;;6.32;3.60;;;17.60;71.20;;;;;;5052709;28;20032;-74
2023/04/10 15:44:38;;;;;;;9.93;3.90;;;17.70;71.80;;;;;;5047243;28;20040;-75
2023/04/10 15:47:03;;;;;;;6.95;3.47;;;17.70;71.80;;;;;;5039373;28;20025;-71
2023/04/10 15:49:30;;;;;;;7.60;3.35;;;17.70;72.10;;;;;;5044534;28;20648;-73
2023/04/10 15:51:56;;;;;;;6.05;2.65;;;17.60;72.30;;;;;;5046783;28;20036;-72
2023/04/10 15:54:21;;;;;;;7.70;2.58;;;17.60;72.00;;;;;;5065738;28;20438;-73
2023/04/10 15:56:49;;;;;;;10.80;3.03;;;17.50;72.30;;;;;;5049977;28;20108;-73
2023/04/10 15:59:15;;;;;;;4.80;2.70;;;17.50;72.90;;;;;;5052338;28;20394;-73
2023/04/10 16:01:40;;;;;;;5.22;2.70;;;17.50;73.00;;;;;;5052256;28;20073;-74
2023/04/10 16:04:06;;;;;;;7.97;3.03;;;17.50;73.00;;;;;;5055795;28;20140;-73
2023/04/10 16:06:32;;;;;;;5.90;3.10;;;17.40;73.10;;;;;;5055802;28;20029;-73
2023/04/10 16:08:57;;;;;;;4.38;2.40;;;17.20;73.40;;;;;;5051680;28;20048;-73
2023/04/10 16:11:23;;;;;;;7.32;2.88;;;17.20;73.20;;;;;;5061584;28;20032;-74
2023/04/10 16:13:48;;;;;;;6.18;3.33;;;17.10;73.60;;;;;;5066809;28;20448;-72
2023/04/10 16:16:15;;;;;;;9.32;3.22;;;17.00;73.90;;;;;;5039504;28;20354;-73
2023/04/10 16:18:43;;;;;;;8.35;3.22;;;16.80;74.10;;;;;;5035126;28;20708;-73
2023/04/10 16:21:09;;;;;;;4.70;3.03;;;16.80;74.50;;;;;;5041530;28;22245;-73
2023/04/10 16:23:35;;;;;;;6.38;2.70;;;16.60;74.60;;;;;;5037758;28;20566;-73
2023/04/10 16:26:01;;;;;;;6.72;3.22;;;16.50;74.90;;;;;;5037023;28;20105;-73
2023/04/10 16:28:27;;;;;;;6.43;3.10;;;16.40;75.10;;;;;;5030009;28;20033;-72
2023/04/10 16:30:52;;;;;;;5.78;3.45;;;16.40;75.50;;;;;;5030929;28;20057;-73
2023/04/10 16:33:18;;;;;;;5.85;3.50;;;16.20;75.70;;;;;;5040342;28;20116;-73
2023/04/10 16:35:44;;;;;;;6.57;3.60;;;16.10;76.10;;;;;;5047924;28;20442;-73
2023/04/10 16:38:09;;;;;;;5.70;3.60;;;16.00;76.20;;;;;;5049605;28;20040;-73
2023/04/10 16:40:35;;;;;;;4.80;3.00;;;15.90;76.20;;;;;;5045060;28;20373;-73
2023/04/10 16:43:01;;;;;;;5.18;3.28;;;15.90;76.50;;;;;;5035151;28;20052;-73
2023/04/10 16:45:26;;;;;;;5.93;3.25;;;15.80;76.80;;;;;;5043760;28;20040;-73
2023/04/10 16:47:52;;;;;;;7.07;3.60;;;15.70;76.70;;;;;;5053669;28;20517;-73
2023/04/10 16:50:18;;;;;;;6.05;2.75;;;15.60;77.00;;;;;;5052542;28;20073;-73
2023/04/10 16:52:44;;;;;;;5.65;3.50;;;15.50;77.10;;;;;;5047821;28;20021;-73
2023/04/10 16:55:09;;;;;;;5.32;3.20;;;15.40;77.30;;;;;;5042649;28;20024;-73
2023/04/10 16:57:35;;;;;;;5.93;3.17;;;15.40;77.70;;;;;;5055064;28;20038;-73
2023/04/10 17:00:01;;;;;;;5.53;3.30;;;15.30;77.90;;;;;;5051314;28;20443;-73
2023/04/10 17:02:28;;;;;;;13.80;4.03;;;15.20;78.00;;;;;;5055032;28;20067;-73
2023/04/10 17:04:54;;;;;;;5.07;3.00;;;15.10;78.10;;;;;;5050199;28;20031;-73
2023/04/10 17:07:21;;;;;;;5.68;3.33;;;15.10;78.00;;;;;;5049980;28;20102;-73
2023/04/10 17:09:46;;;;;;;6.15;2.90;;;15.10;78.40;;;;;;5037926;28;20045;-73
2023/04/10 17:12:12;;;;;;;5.75;3.30;;;15.10;78.60;;;;;;5043028;28;20664;-75
2023/04/10 17:14:37;;;;;;;9.48;3.92;;;15.00;78.70;;;;;;5036476;28;20103;-73
2023/04/10 17:17:03;;;;;;;25.25;13.60;;;15.00;78.70;;;;;;5043702;28;20151;-75
2023/04/10 17:19:29;;;;;;;9.80;5.85;;;14.90;78.90;;;;;;5041750;28;20474;-73
2023/04/10 17:21:55;;;;;;;16.52;6.03;;;14.90;79.00;;;;;;5040652;28;20028;-73
2023/04/10 17:24:20;;;;;;;6.07;3.90;;;14.80;79.20;;;;;;5042537;28;20033;-74
2023/04/10 17:26:46;;;;;;;7.40;4.05;;;14.70;79.40;;;;;;5043334;28;20036;-73
2023/04/10 17:29:12;;;;;;;15.43;8.70;;;14.70;79.60;;;;;;5037788;28;20041;-74
2023/04/10 17:31:37;;;;;;;8.32;6.97;;;14.60;79.30;;;;;;5032149;28;20040;-73
2023/04/10 17:34:03;;;;;;;7.65;4.90;;;14.70;79.20;;;;;;5041460;28;21009;-74
2023/04/10 17:36:30;;;;;;;6.60;4.43;;;14.70;79.40;;;;;;5047402;28;20376;-74
2023/04/10 17:38:56;;;;;;;7.50;3.22;;;14.60;79.40;;;;;;5047194;28;20098;-74
2023/04/10 17:41:22;;;;;;;5.88;3.97;;;14.50;79.80;;;;;;5045125;28;20029;-74
2023/04/10 17:43:48;;;;;;;5.90;3.38;;;14.50;79.60;;;;;;5040541;28;20048;-74
2023/04/10 17:46:14;;;;;;;5.38;3.58;;;14.50;79.80;;;;;;5040829;28;20044;-73
2023/04/10 17:48:41;;;;;;;5.45;3.58;;;14.40;80.00;;;;;;5053959;28;20029;-78
2023/04/10 17:51:07;;;;;;;6.65;3.30;;;14.30;80.30;;;;;;5054639;28;20191;-76
2023/04/10 17:53:33;;;;;;;4.95;2.72;;;14.30;80.00;;;;;;5050967;28;20029;-75
2023/04/10 17:55:59;;;;;;;8.25;4.28;;;14.30;80.20;;;;;;5047632;28;20037;-74
2023/04/10 17:58:24;;;;;;;6.95;3.30;;;14.20;80.30;;;;;;5049845;28;20524;-74
2023/04/10 18:00:50;;;;;;;6.05;3.53;;;14.20;80.70;;;;;;5051545;28;20199;-75
2023/04/10 18:03:16;;;;;;;9.57;3.95;;;14.20;80.60;;;;;;5038368;28;20433;-73
2023/04/10 18:05:42;;;;;;;6.25;3.53;;;14.20;81.20;;;;;;5039360;28;20137;-74
2023/04/10 18:08:07;;;;;;;7.43;4.97;;;14.00;80.80;;;;;;5045156;28;20386;-75
2023/04/10 18:10:34;;;;;;;18.38;13.52;;;14.10;80.90;;;;;;5053836;28;20085;-75
2023/04/10 18:12:59;;;;;;;13.07;10.60;;;13.90;81.50;;;;;;5052420;28;20025;-74
2023/04/10 18:15:25;;;;;;;13.20;8.73;;;13.90;81.30;;;;;;5048904;28;20056;-75
2023/04/10 18:17:51;;;;;;;7.03;5.13;;;13.80;81.40;;;;;;5039912;28;20033;-75
2023/04/10 18:20:17;;;;;;;5.28;2.92;;;13.80;81.60;;;;;;5045999;28;20116;-74
2023/04/10 18:22:46;;;;;;;7.35;2.63;;;13.70;81.80;;;;;;5040259;28;20179;-74
2023/04/10 18:25:12;;;;;;;5.72;3.33;;;13.50;82.90;;;;;;5047423;28;20115;-74
2023/04/10 18:27:41;;;;;;;6.78;3.47;;;13.40;83.00;;;;;;5038923;28;20684;-74
2023/04/10 18:30:08;;;;;;;6.95;3.53;;;13.40;82.60;;;;;;5039756;28;20051;-74
2023/04/10 18:32:33;;;;;;;5.15;2.90;;;13.50;82.60;;;;;;5039893;28;20616;-73
2023/04/10 18:34:59;;;;;;;4.97;2.35;;;13.50;82.70;;;;;;5045100;28;20118;-74
2023/04/10 18:37:25;;;;;;;4.93;2.30;;;13.10;83.20;;;;;;5043712;28;20496;-73
2023/04/10 18:39:50;;;;;;;5.63;2.85;;;12.80;84.00;;;;;;5047742;28;20056;-74
2023/04/10 18:42:16;;;;;;;6.00;2.88;;;12.70;84.10;;;;;;5045669;28;20025;-73
2023/04/10 18:44:42;;;;;;;5.40;2.45;;;12.90;84.00;;;;;;5044157;28;20084;-73
2023/04/10 18:47:09;;;;;;;5.00;2.92;;;12.80;84.20;;;;;;5036613;28;20665;-73
2023/04/10 18:49:35;;;;;;;4.53;2.90;;;12.60;84.70;;;;;;5038674;28;20045;-73
2023/04/10 18:52:01;;;;;;;5.03;2.50;;;12.40;85.30;;;;;;5042203;28;20021;-72
2023/04/10 18:54:27;;;;;;;6.65;3.22;;;12.50;85.60;;;;;;5042681;28;20362;-74
2023/04/10 18:56:53;;;;;;;5.78;3.47;;;12.70;85.30;;;;;;5043309;28;20031;-74
2023/04/10 18:59:19;;;;;;;6.40;3.70;;;12.80;85.30;;;;;;5043389;28;20041;-73
2023/04/10 19:01:45;;;;;;;9.18;3.78;;;13.00;84.50;;;;;;5032138;28;20029;-74
2023/04/10 19:04:10;;;;;;;8.23;4.75;;;12.90;85.00;;;;;;5038121;28;20025;-74
2023/04/10 19:06:38;;;;;;;6.00;3.63;;;12.80;85.30;;;;;;5043144;28;20119;-74
2023/04/10 19:09:04;;;;;;;5.85;4.00;;;12.80;85.50;;;;;;5042795;28;20035;-74
2023/04/10 19:11:30;;;;;;;7.75;4.00;;;12.80;85.40;;;;;;5042380;28;20855;-74
2023/04/10 19:13:56;;;;;;;6.55;3.92;;;12.80;85.50;;;;;;5038351;28;20600;-74
2023/04/10 19:16:22;;;;;;;6.55;3.40;;;12.80;85.40;;;;;;5032216;28;20057;-73
2023/04/10 19:18:48;;;;;;;5.25;3.03;;;12.70;85.60;;;;;;5048787;28;20106;-74
2023/04/10 19:21:13;;;;;;;5.60;3.10;;;12.60;86.00;;;;;;5037290;28;20060;-74
2023/04/10 19:23:39;;;;;;;5.78;2.80;;;12.60;86.10;;;;;;5041887;28;20029;-74
2023/04/10 19:26:06;;;;;;;11.55;6.80;;;12.20;86.50;;;;;;5039395;28;20060;-74
2023/04/10 19:28:33;;;;;;;11.95;7.75;;;12.40;86.90;;;;;;5042220;28;20052;-73
2023/04/10 19:30:59;;;;;;;6.22;3.70;;;12.50;86.60;;;;;;5038828;28;20048;-75
2023/04/10 19:33:25;;;;;;;4.68;2.47;;;12.40;86.40;;;;;;5047157;28;20031;-74
2023/04/10 19:35:51;;;;;;;4.35;2.92;;;12.30;86.60;;;;;;5044563;28;20021;-73
2023/04/10 19:38:17;;;;;;;5.10;3.08;;;12.00;87.30;;;;;;5045602;28;20025;-74
2023/04/10 19:40:46;;;;;;;6.35;2.72;;;11.80;88.20;;;;;;5048308;28;20120;-73
2023/04/10 19:43:12;;;;;;;5.20;3.20;;;11.80;88.40;;;;;;5047690;28;20120;-74
2023/04/10 19:45:38;;;;;;;6.63;3.65;;;11.80;88.20;;;;;;5046251;28;20113;-73
2023/04/10 19:48:04;;;;;;;6.07;3.58;;;12.00;87.80;;;;;;5045361;28;20036;-73
2023/04/10 19:50:30;;;;;;;6.22;3.70;;;12.00;87.80;;;;;;5047656;28;20040;-73
2023/04/10 19:52:56;;;;;;;6.40;3.63;;;11.90;87.80;;;;;;5047292;28;20520;-73
2023/04/10 19:55:22;;;;;;;6.18;3.17;;;11.80;88.40;;;;;;5045607;28;20129;-73
2023/04/10 19:57:49;;;;;;;5.78;3.35;;;12.20;87.50;;;;;;5047719;28;20632;-74
2023/04/10 20:00:14;;;;;;;6.35;3.78;;;12.40;87.10;;;;;;5037184;28;20036;-72
2023/04/10 20:02:40;;;;;;;5.75;3.38;;;12.50;86.70;;;;;;5044698;28;20025;-73
2023/04/10 20:05:06;;;;;;;8.75;2.95;;;12.50;86.90;;;;;;5047062;28;20041;-74
2023/04/10 20:07:32;;;;;;;7.65;3.53;;;12.10;87.20;;;;;;5048494;28;20056;-75
2023/04/10 20:10:02;;;;;;;6.20;3.60;;;12.10;87.40;;;;;;5053588;28;20064;-75
2023/04/10 20:12:34;;;;;;;6.10;2.83;;;12.00;87.70;;;;;;5045707;28;20025;-74
2023/04/10 20:15:01;;;;;;;5.82;3.38;;;12.00;88.10;;;;;;5044868;28;20494;-75
2023/04/10 20:17:27;;;;;;;5.38;3.08;;;11.90;87.90;;;;;;5045972;28;20040;-74
2023/04/10 20:19:53;;;;;;;6.50;3.17;;;11.80;88.30;;;;;;5046552;28;20025;-73
2023/04/10 20:22:19;;;;;;;5.97;3.30;;;11.80;88.80;;;;;;5046093;28;20043;-75
2023/04/10 20:24:45;;;;;;;7.82;3.88;;;11.80;88.70;;;;;;5044722;28;20024;-74
2023/04/10 20:27:13;;;;;;;6.63;4.25;;;11.70;88.80;;;;;;5045117;28;20033;-74
2023/04/10 20:29:39;;;;;;;6.55;3.63;;;12.00;88.40;;;;;;5044018;28;20861;-75
2023/04/10 20:32:07;;;;;;;8.57;4.07;;;12.00;88.10;;;;;;5029141;28;20057;-74
2023/04/10 20:34:32;;;;;;;6.60;4.15;;;11.90;88.20;;;;;;5046648;28;20554;-74
2023/04/10 20:36:58;;;;;;;8.90;3.83;;;12.10;87.90;;;;;;5034748;28;20044;-75
2023/04/10 20:39:24;;;;;;;5.10;3.38;;;12.20;88.00;;;;;;5035449;28;20033;-74
2023/04/10 20:41:49;;;;;;;6.32;3.80;;;12.10;88.60;;;;;;5044096;28;20037;-75
2023/04/10 20:44:15;;;;;;;7.78;4.03;;;11.90;88.60;;;;;;5047501;28;20032;-74
2023/04/10 20:46:41;;;;;;;6.13;3.85;;;12.00;88.50;;;;;;5040313;28;20056;-74
2023/04/10 20:49:06;;;;;;;7.32;4.25;;;12.10;88.10;;;;;;5054841;28;20037;-74
2023/04/10 20:51:35;;;;;;;9.82;4.75;;;12.20;87.60;;;;;;5036352;28;20102;-74
2023/04/10 20:54:02;;;;;;;6.22;3.80;;;12.30;87.70;;;;;;5047545;28;20032;-75
2023/04/10 20:56:27;;;;;;;8.55;3.90;;;12.10;88.90;;;;;;5042850;28;20027;-74
2023/04/10 20:58:53;;;;;;;6.95;4.07;;;12.10;88.20;;;;;;5043514;28;20120;-74
2023/04/10 21:01:19;;;;;;;6.88;4.45;;;12.10;88.30;;;;;;5046375;28;20060;-74
2023/04/10 21:03:45;;;;;;;9.30;4.65;;;12.20;87.80;;;;;;5039825;28;20033;-75
2023/04/10 21:06:10;;;;;;;7.43;4.32;;;12.30;87.80;;;;;;5045305;28;20036;-74
2023/04/10 21:08:36;;;;;;;6.05;3.38;;;12.20;88.30;;;;;;5045673;28;20478;-74
2023/04/10 21:11:02;;;;;;;7.20;4.03;;;12.20;88.40;;;;;;5048248;28;20025;-75
2023/04/10 21:13:27;;;;;;;8.05;3.70;;;12.20;88.30;;;;;;5045947;28;20033;-74
2023/04/10 21:15:53;;;;;;;8.20;4.80;;;12.10;88.70;;;;;;5033794;28;20132;-76
2023/04/10 21:18:19;;;;;;;9.18;4.05;;;12.00;89.20;;;;;;5041958;28;20114;-74
2023/04/10 21:20:44;;;;;;;7.80;3.53;;;11.90;89.60;;;;;;5040199;28;20103;-75
2023/04/10 21:23:10;;;;;;;8.23;4.43;;;12.00;89.90;;;;;;5043728;28;21012;-74
2023/04/10 21:25:37;;;;;;;11.90;4.50;;;11.80;89.90;;;;;;5044220;28;20709;-74
2023/04/10 21:28:02;;;;;;;10.60;4.28;;;11.90;89.70;;;;;;5044135;28;20107;-74
2023/04/10 21:30:28;;;;;;;9.90;4.72;;;11.90;89.60;;;;;;5042768;28;20140;-74
2023/04/10 21:32:54;;;;;;;9.15;4.30;;;12.10;88.80;;;;;;5047347;28;20801;-74
2023/04/10 21:35:21;;;;;;;8.50;4.95;;;12.10;89.90;;;;;;5049423;28;20572;-74
2023/04/10 21:37:47;;;;;;;7.90;4.07;;;11.90;89.40;;;;;;5043576;28;20032;-73
2023/04/10 21:40:12;;;;;;;8.18;4.63;;;11.90;89.40;;;;;;5042901;28;20086;-74
2023/04/10 21:42:38;;;;;;;7.78;4.32;;;11.90;89.60;;;;;;5045318;28;20401;-74
2023/04/10 21:45:05;;;;;;;8.05;4.28;;;11.90;89.70;;;;;;5043239;28;20032;-74
2023/04/10 21:47:31;;;;;;;7.95;4.32;;;11.90;89.60;;;;;;5041857;28;20039;-74
2023/04/10 21:49:56;;;;;;;8.52;4.45;;;11.80;89.70;;;;;;5043406;28;20387;-74
2023/04/10 21:52:22;;;;;;;8.00;4.75;;;11.70;90.00;;;;;;5042279;28;20123;-74
2023/04/10 21:54:48;;;;;;;7.25;4.30;;;11.70;90.00;;;;;;5045029;28;20092;-74
2023/04/10 21:57:14;;;;;;;7.53;4.43;;;11.70;90.00;;;;;;5042336;28;20769;-73
2023/04/10 21:59:39;;;;;;;6.68;4.63;;;11.80;90.10;;;;;;5043765;28;20033;-74
2023/04/10 22:02:05;;;;;;;7.05;4.18;;;11.70;90.20;;;;;;5043525;28;20037;-74
2023/04/10 22:04:31;;;;;;;7.40;4.03;;;11.50;90.30;;;;;;5041157;28;20033;-74
2023/04/10 22:06:56;;;;;;;6.50;3.95;;;11.40;90.60;;;;;;5040409;28;20039;-73
2023/04/10 22:09:22;;;;;;;7.55;3.80;;;11.40;90.50;;;;;;5044627;28;20032;-74
2023/04/10 22:11:49;;;;;;;6.35;3.97;;;11.40;90.50;;;;;;5043722;28;20535;-74
2023/04/10 22:14:15;;;;;;;6.25;3.13;;;11.40;90.60;;;;;;5041519;28;20330;-73
2023/04/10 22:16:40;;;;;;;6.90;4.15;;;11.30;90.70;;;;;;5046446;28;20109;-74
2023/04/10 22:19:06;;;;;;;6.00;3.50;;;11.30;90.60;;;;;;5043660;28;20063;-74
2023/04/10 22:21:32;;;;;;;5.78;3.58;;;11.30;90.50;;;;;;5043916;28;20130;-74
2023/04/10 22:23:57;;;;;;;5.47;3.50;;;11.30;90.70;;;;;;5043213;28;20029;-74
2023/04/10 22:26:23;;;;;;;5.57;3.17;;;11.30;90.70;;;;;;5044411;28;20062;-74
2023/04/10 22:28:49;;;;;;;6.07;3.22;;;11.30;90.90;;;;;;5042581;28;20653;-73
2023/04/10 22:31:15;;;;;;;5.38;3.58;;;11.20;90.90;;;;;;5043249;28;20041;-74
2023/04/10 22:33:41;;;;;;;6.53;3.83;;;11.20;90.90;;;;;;5044290;28;20033;-74
2023/04/10 22:36:07;;;;;;;6.13;3.75;;;11.40;90.70;;;;;;5037953;28;20036;-74
2023/04/10 22:38:33;;;;;;;9.10;4.28;;;11.40;90.70;;;;;;5042193;28;20037;-73
2023/04/10 22:40:59;;;;;;;10.05;3.85;;;11.30;90.80;;;;;;5042498;28;20095;-74
2023/04/10 22:43:24;;;;;;;9.20;5.00;;;11.40;90.80;;;;;;5043946;28;20060;-73
2023/04/10 22:45:50;;;;;;;6.60;3.80;;;11.40;90.70;;;;;;5044113;28;20116;-74
2023/04/10 22:48:16;;;;;;;6.75;4.20;;;11.40;90.90;;;;;;5042869;28;20029;-74
2023/04/10 22:50:41;;;;;;;6.97;3.83;;;11.40;91.00;;;;;;5040830;28;20529;-74
2023/04/10 22:53:09;;;;;;;6.90;3.35;;;11.30;90.80;;;;;;5048003;28;20116;-74
2023/04/10 22:55:39;;;;;;;6.43;3.60;;;11.30;90.90;;;;;;5046898;28;20053;-74
2023/04/10 22:58:06;;;;;;;9.68;4.15;;;11.20;91.00;;;;;;5045782;28;20500;-74
2023/04/10 23:00:34;;;;;;;5.63;3.08;;;11.00;91.10;;;;;;5048620;28;20043;-74
2023/04/10 23:03:00;;;;;;;6.97;3.95;;;10.90;91.50;;;;;;5049113;28;20040;-74
2023/04/10 23:05:26;;;;;;;5.88;3.70;;;10.80;91.60;;;;;;5048064;28;20037;-74
2023/04/10 23:07:52;;;;;;;6.97;3.95;;;10.70;91.80;;;;;;5050631;28;20056;-74
2023/04/10 23:10:19;;;;;;;9.35;4.15;;;10.70;91.90;;;;;;5050111;28;20073;-73
2023/04/10 23:12:44;;;;;;;8.85;3.92;;;10.70;91.70;;;;;;5049039;28;20040;-74
2023/04/10 23:15:10;;;;;;;6.03;3.38;;;10.80;91.70;;;;;;5050060;28;20116;-73
2023/04/10 23:17:36;;;;;;;8.05;3.70;;;10.70;92.10;;;;;;5052014;28;20125;-73
2023/04/10 23:20:01;;;;;;;5.88;3.40;;;10.60;92.10;;;;;;5051152;28;20061;-73
2023/04/10 23:22:28;;;;;;;7.40;3.72;;;10.70;92.00;;;;;;5051364;28;20112;-73
2023/04/10 23:24:54;;;;;;;6.70;3.72;;;10.60;92.20;;;;;;5052715;28;20025;-74
2023/04/10 23:27:20;;;;;;;7.93;4.25;;;10.70;92.10;;;;;;5050988;28;20057;-74
2023/04/10 23:29:47;;;;;;;8.43;4.13;;;10.60;92.30;;;;;;5051057;28;20104;-74
2023/04/10 23:32:13;;;;;;;6.68;3.33;;;10.60;92.20;;;;;;5052056;28;20025;-73
2023/04/10 23:34:39;;;;;;;6.95;3.78;;;10.60;92.10;;;;;;5050935;28;20045;-74
2023/04/10 23:37:05;;;;;;;6.05;4.00;;;10.70;92.00;;;;;;5050622;28;20065;-74
2023/04/10 23:39:30;;;;;;;6.20;3.42;;;10.70;92.10;;;;;;5052195;28;20068;-73
2023/04/10 23:41:56;;;;;;;7.15;3.90;;;10.70;92.10;;;;;;5051146;28;20470;-73
2023/04/10 23:44:22;;;;;;;6.05;3.20;;;10.70;92.00;;;;;;5052317;28;20024;-74
2023/04/10 23:46:51;;;;;;;6.35;2.63;;;10.70;92.40;;;;;;5051209;28;20029;-74
2023/04/10 23:49:17;;;;;;;6.85;3.75;;;10.60;92.40;;;;;;5048931;28;20029;-73
2023/04/10 23:51:44;;;;;;;7.55;3.45;;;10.70;92.10;;;;;;5051216;28;20040;-73
2023/04/10 23:54:12;;;;;;;8.73;3.97;;;10.80;92.10;;;;;;5051209;28;20021;-73
2023/04/10 23:56:37;;;;;;;7.63;3.78;;;10.80;92.00;;;;;;5050664;28;20590;-73
2023/04/10 23:59:03;;;;;;;8.52;3.80;;;10.90;92.10;;;;;;5051417;28;20056;-73
